Detall de PIREP

Printer-friendly versionPDF version

[2012/08/08 15:49:00]
Flight IATA:CT1004
Pilot Number:042
Company ICAO:CAT
Aircraft Type:B738/F
PAX:120
Departing Airport: LXGB
Destination Airport: LIEA
Alternate Airport:LIEO
Online: VATSIM
Route:PIMOS UM445 RAKOR DCT ROLAS UN851 MHN UM603 ELSAG
Flight Level:F340
No Slew and time accel
No pause
Crash detect
Detect pilot in Cockpit between each 30 and 45 minutes
15:49 Zero fuel Weight: 118700 Lbs, Fuel Weight: 46049 Lbs
15:49 VATSIM:LXGB 081450Z 09010KT 9999 FEW013 SCT140 25/20 Q1017 NOSIG
15:49 VATSIM:LIEA 081520Z 28007KT 250V330 CAVOK 32/17 Q1018
15:50 VOICE CATALONIAN/SUMMER CHARTER
15:54 Parking Brakes off
16:00 Take-off
16:00 Take off Weight: 163999 Lbs
16:00 Wind: 094º @ 010 Knots Heading: 086º
16:00 POS N36º 09´ 14´´ W005º 19´ 51´´
16:00 Gear Up: 170 Knots
16:00 Flaps:5 at 170 Knots
16:01 Flaps:4 at 161 Knots
16:02 Flaps:3 at 162 Knots
16:03 Flaps:2 at198 Knots
16:03 Flaps:1 at 217 Knots
16:03 Flaps:0 at 236 Knots
16:15 Wind:216º@048 Knots Heading: 057º Ground Speed: 487 Knots Altitude 24222 ft
16:27 TOC
16:27 Fuel Weight: 40242 Lb
16:30 Wind:223º@035 Knots Heading: 066º Ground Speed: 497 Knots Altitude 34140 ft
16:45 Wind:232º@035 Knots Heading: 069º Ground Speed: 497 Knots Altitude 34143 ft
17:00 Wind:242º@029 Knots Heading: 064º Ground Speed: 494 Knots Altitude 34140 ft
17:15 Wind:251º@028 Knots Heading: 073º Ground Speed: 492 Knots Altitude 34153 ft
17:17 TOD
17:17 Fuel Weight: 35542 Lb
17:30 Wind:267º@035 Knots Heading: 082º Ground Speed: 371 Knots Altitude 13497 ft
17:36 Flaps:2 at 181 Knots
17:36 Flaps:3 at 180 Knots
17:36 Flaps:4 at 180 Knots
17:36 Gear Down: 173 Knots
17:36 Flaps:5 at 171 Knots
17:36 Flaps:6 at 171 Knots
17:37 Flaps:8 at 168 Knots
17:39 TouchDown:Rate -694 ft/min Speed: 129 Knots
17:40 VATSIM:LIEA 081720Z 36006KT 320V040 CAVOK 31/09 Q1018
17:40 Land
17:40 Wind:304º@004 Knots
17:40 Heading: 024º
17:40 Flight Duration: 01:40
17:40 Landing Weight: 153393 Lbs
17:40 POS N40º 38´ 01´´ E008º 17´ 30´´
17:42 Parking brakes on
17:42 Block to Block Duration: 01:48
17:42 Final Fuel: 34464 Lbls
17:42 Spent Fuel: 11585 Lbls
17:42 Flight Length: 613 NM
17:42 TOD Land Length: 78 NM

Exportar CSV

Powered by Drupal - Modified by Danger4k